sensor_id;sensor_type;location;lat;lon;timestamp;temperature;humidity
29803;DHT22;16702;50.898;4.662;2022-09-30T00:00:40;11.80;99.90
29803;DHT22;16702;50.898;4.662;2022-09-30T00:03:10;12.00;99.90
29803;DHT22;16702;50.898;4.662;2022-09-30T00:05:40;11.90;99.90
29803;DHT22;16702;50.898;4.662;2022-09-30T00:08:13;11.90;99.90
29803;DHT22;16702;50.898;4.662;2022-09-30T00:10:43;11.80;99.90
29803;DHT22;16702;50.898;4.662;2022-09-30T00:13:14;11.80;99.90
29803;DHT22;16702;50.898;4.662;2022-09-30T00:15:45;11.80;99.90
29803;DHT22;16702;50.898;4.662;2022-09-30T00:18:16;11.70;99.90
29803;DHT22;16702;50.898;4.662;2022-09-30T00:20:46;11.70;99.90
29803;DHT22;16702;50.898;4.662;2022-09-30T00:23:20;11.70;99.90
29803;DHT22;16702;50.898;4.662;2022-09-30T00:25:56;11.80;99.90
29803;DHT22;16702;50.898;4.662;2022-09-30T00:28:27;11.80;99.90
29803;DHT22;16702;50.898;4.662;2022-09-30T00:30:58;11.70;99.90
29803;DHT22;16702;50.898;4.662;2022-09-30T00:33:28;11.70;99.90
29803;DHT22;16702;50.898;4.662;2022-09-30T00:35:59;11.70;99.90
29803;DHT22;16702;50.898;4.662;2022-09-30T00:38:32;11.60;99.90
29803;DHT22;16702;50.898;4.662;2022-09-30T00:41:03;11.70;99.90
29803;DHT22;16702;50.898;4.662;2022-09-30T00:43:41;11.80;99.90
29803;DHT22;16702;50.898;4.662;2022-09-30T00:46:22;11.70;99.90
29803;DHT22;16702;50.898;4.662;2022-09-30T00:48:58;11.50;99.90
29803;DHT22;16702;50.898;4.662;2022-09-30T00:51:32;11.70;99.90
29803;DHT22;16702;50.898;4.662;2022-09-30T00:54:09;11.60;99.90
29803;DHT22;16702;50.898;4.662;2022-09-30T00:56:44;11.60;99.90
29803;DHT22;16702;50.898;4.662;2022-09-30T00:59:18;11.50;99.90
29803;DHT22;16702;50.898;4.662;2022-09-30T01:01:49;11.60;99.90
29803;DHT22;16702;50.898;4.662;2022-09-30T01:04:21;11.60;99.90
29803;DHT22;16702;50.898;4.662;2022-09-30T01:06:52;11.50;99.90
29803;DHT22;16702;50.898;4.662;2022-09-30T01:09:25;11.50;99.90
29803;DHT22;16702;50.898;4.662;2022-09-30T01:11:56;11.60;99.90
29803;DHT22;16702;50.898;4.662;2022-09-30T01:14:27;11.60;99.90
29803;DHT22;16702;50.898;4.662;2022-09-30T01:17:04;11.50;99.90
29803;DHT22;16702;50.898;4.662;2022-09-30T01:23:00;11.40;99.90
29803;DHT22;16702;50.898;4.662;2022-09-30T01:25:57;11.40;99.90
29803;DHT22;16702;50.898;4.662;2022-09-30T01:28:53;11.30;99.90
29803;DHT22;16702;50.898;4.662;2022-09-30T01:31:42;11.30;99.90
29803;DHT22;16702;50.898;4.662;2022-09-30T01:34:19;11.30;99.90
29803;DHT22;16702;50.898;4.662;2022-09-30T01:37:04;11.20;99.90
29803;DHT22;16702;50.898;4.662;2022-09-30T01:39:45;11.30;99.90
29803;DHT22;16702;50.898;4.662;2022-09-30T01:42:22;11.30;99.90
29803;DHT22;16702;50.898;4.662;2022-09-30T01:44:58;11.30;99.90
29803;DHT22;16702;50.898;4.662;2022-09-30T01:47:36;11.20;99.90
29803;DHT22;16702;50.898;4.662;2022-09-30T01:50:15;11.40;99.90
29803;DHT22;16702;50.898;4.662;2022-09-30T01:52:53;11.20;99.90
29803;DHT22;16702;50.898;4.662;2022-09-30T01:55:28;11.20;99.90
29803;DHT22;16702;50.898;4.662;2022-09-30T01:58:05;11.20;99.90
29803;DHT22;16702;50.898;4.662;2022-09-30T02:00:41;11.20;99.90
29803;DHT22;16702;50.898;4.662;2022-09-30T02:03:17;11.10;99.90
29803;DHT22;16702;50.898;4.662;2022-09-30T02:05:53;11.10;99.90
29803;DHT22;16702;50.898;4.662;2022-09-30T02:08:30;11.10;99.90
29803;DHT22;16702;50.898;4.662;2022-09-30T02:11:06;11.10;99.90
29803;DHT22;16702;50.898;4.662;2022-09-30T02:13:41;11.10;99.90
29803;DHT22;16702;50.898;4.662;2022-09-30T02:16:21;11.00;99.90
29803;DHT22;16702;50.898;4.662;2022-09-30T02:18:58;11.00;99.90
29803;DHT22;16702;50.898;4.662;2022-09-30T02:21:32;11.00;99.90
29803;DHT22;16702;50.898;4.662;2022-09-30T02:24:09;11.00;99.90
29803;DHT22;16702;50.898;4.662;2022-09-30T02:26:42;11.00;99.90
29803;DHT22;16702;50.898;4.662;2022-09-30T02:29:19;11.00;99.90
29803;DHT22;16702;50.898;4.662;2022-09-30T02:31:53;11.00;99.90
29803;DHT22;16702;50.898;4.662;2022-09-30T02:34:29;11.00;99.90
29803;DHT22;16702;50.898;4.662;2022-09-30T02:37:06;11.00;99.90
29803;DHT22;16702;50.898;4.662;2022-09-30T02:39:41;11.00;99.90
29803;DHT22;16702;50.898;4.662;2022-09-30T02:42:15;11.00;99.90
29803;DHT22;16702;50.898;4.662;2022-09-30T02:44:49;11.00;99.90
29803;DHT22;16702;50.898;4.662;2022-09-30T02:47:25;11.00;99.90
29803;DHT22;16702;50.898;4.662;2022-09-30T02:50:05;10.90;99.90
29803;DHT22;16702;50.898;4.662;2022-09-30T02:52:43;10.90;99.90
29803;DHT22;16702;50.898;4.662;2022-09-30T02:55:18;10.90;99.90
29803;DHT22;16702;50.898;4.662;2022-09-30T02:57:57;10.90;99.90
29803;DHT22;16702;50.898;4.662;2022-09-30T03:00:28;10.90;99.90
29803;DHT22;16702;50.898;4.662;2022-09-30T03:03:04;10.90;99.90
29803;DHT22;16702;50.898;4.662;2022-09-30T03:05:38;10.90;99.90
29803;DHT22;16702;50.898;4.662;2022-09-30T03:08:10;10.90;99.90
29803;DHT22;16702;50.898;4.662;2022-09-30T03:10:41;10.90;99.90
29803;DHT22;16702;50.898;4.662;2022-09-30T03:13:25;10.90;99.90
29803;DHT22;16702;50.898;4.662;2022-09-30T03:16:08;10.90;99.90
29803;DHT22;16702;50.898;4.662;2022-09-30T03:18:57;10.80;99.90
29803;DHT22;16702;50.898;4.662;2022-09-30T03:21:42;10.90;99.90
29803;DHT22;16702;50.898;4.662;2022-09-30T03:24:34;10.70;99.90
29803;DHT22;16702;50.898;4.662;2022-09-30T03:27:14;10.80;99.90
29803;DHT22;16702;50.898;4.662;2022-09-30T03:29:55;10.80;99.90
29803;DHT22;16702;50.898;4.662;2022-09-30T03:32:40;10.70;99.90
29803;DHT22;16702;50.898;4.662;2022-09-30T03:35:17;10.70;99.90
29803;DHT22;16702;50.898;4.662;2022-09-30T03:37:59;10.70;99.90
29803;DHT22;16702;50.898;4.662;2022-09-30T03:40:40;10.70;99.90
29803;DHT22;16702;50.898;4.662;2022-09-30T03:43:18;10.70;99.90
29803;DHT22;16702;50.898;4.662;2022-09-30T03:45:51;10.70;99.90
29803;DHT22;16702;50.898;4.662;2022-09-30T03:48:26;10.70;99.90
29803;DHT22;16702;50.898;4.662;2022-09-30T03:50:58;10.70;99.90
29803;DHT22;16702;50.898;4.662;2022-09-30T03:53:37;10.70;99.90
29803;DHT22;16702;50.898;4.662;2022-09-30T03:56:08;10.70;99.90
29803;DHT22;16702;50.898;4.662;2022-09-30T03:58:40;10.60;99.90
29803;DHT22;16702;50.898;4.662;2022-09-30T04:01:16;10.70;99.90
29803;DHT22;16702;50.898;4.662;2022-09-30T04:03:49;10.70;99.90
29803;DHT22;16702;50.898;4.662;2022-09-30T04:06:22;10.70;99.90
29803;DHT22;16702;50.898;4.662;2022-09-30T04:08:55;10.70;99.90
29803;DHT22;16702;50.898;4.662;2022-09-30T04:11:25;10.70;99.90
29803;DHT22;16702;50.898;4.662;2022-09-30T04:13:56;10.60;99.90
29803;DHT22;16702;50.898;4.662;2022-09-30T04:16:28;10.60;99.90
29803;DHT22;16702;50.898;4.662;2022-09-30T04:18:59;10.60;99.90
29803;DHT22;16702;50.898;4.662;2022-09-30T04:21:29;10.60;99.90
29803;DHT22;16702;50.898;4.662;2022-09-30T04:24:02;10.50;99.90
29803;DHT22;16702;50.898;4.662;2022-09-30T04:26:33;10.60;99.90
29803;DHT22;16702;50.898;4.662;2022-09-30T04:29:03;10.60;99.90
29803;DHT22;16702;50.898;4.662;2022-09-30T04:31:33;10.60;99.90
29803;DHT22;16702;50.898;4.662;2022-09-30T04:34:04;10.50;99.90
29803;DHT22;16702;50.898;4.662;2022-09-30T04:36:37;10.50;99.90
29803;DHT22;16702;50.898;4.662;2022-09-30T04:39:10;10.50;99.90
29803;DHT22;16702;50.898;4.662;2022-09-30T04:41:40;10.50;99.90
29803;DHT22;16702;50.898;4.662;2022-09-30T04:44:10;10.50;99.90
29803;DHT22;16702;50.898;4.662;2022-09-30T04:46:40;10.50;99.90
29803;DHT22;16702;50.898;4.662;2022-09-30T04:49:11;10.50;99.90
29803;DHT22;16702;50.898;4.662;2022-09-30T04:51:41;10.40;99.90
29803;DHT22;16702;50.898;4.662;2022-09-30T04:54:15;10.40;99.90
29803;DHT22;16702;50.898;4.662;2022-09-30T04:56:45;10.40;99.90
29803;DHT22;16702;50.898;4.662;2022-09-30T04:59:15;10.40;99.90
29803;DHT22;16702;50.898;4.662;2022-09-30T05:01:46;10.40;99.90
29803;DHT22;16702;50.898;4.662;2022-09-30T05:04:16;10.30;99.90
29803;DHT22;16702;50.898;4.662;2022-09-30T05:06:46;10.30;99.90
29803;DHT22;16702;50.898;4.662;2022-09-30T05:09:19;10.30;99.90
29803;DHT22;16702;50.898;4.662;2022-09-30T05:11:50;10.30;99.90
29803;DHT22;16702;50.898;4.662;2022-09-30T05:14:20;10.30;99.90
29803;DHT22;16702;50.898;4.662;2022-09-30T05:16:50;10.30;99.90
29803;DHT22;16702;50.898;4.662;2022-09-30T05:19:21;10.40;99.90
29803;DHT22;16702;50.898;4.662;2022-09-30T05:21:51;10.20;99.90
29803;DHT22;16702;50.898;4.662;2022-09-30T05:24:24;10.30;99.90
29803;DHT22;16702;50.898;4.662;2022-09-30T05:26:56;10.20;99.90
29803;DHT22;16702;50.898;4.662;2022-09-30T05:29:26;10.30;99.90
29803;DHT22;16702;50.898;4.662;2022-09-30T05:31:57;10.20;99.90
29803;DHT22;16702;50.898;4.662;2022-09-30T05:34:27;10.20;99.90
29803;DHT22;16702;50.898;4.662;2022-09-30T05:36:58;10.20;99.90
29803;DHT22;16702;50.898;4.662;2022-09-30T05:39:31;10.10;99.90
29803;DHT22;16702;50.898;4.662;2022-09-30T05:42:01;10.20;99.90
29803;DHT22;16702;50.898;4.662;2022-09-30T05:44:31;10.10;99.90
29803;DHT22;16702;50.898;4.662;2022-09-30T05:47:02;10.10;99.90
29803;DHT22;16702;50.898;4.662;2022-09-30T05:49:32;10.10;99.90
29803;DHT22;16702;50.898;4.662;2022-09-30T05:52:03;10.10;99.90
29803;DHT22;16702;50.898;4.662;2022-09-30T05:54:36;10.10;99.90
29803;DHT22;16702;50.898;4.662;2022-09-30T05:57:06;10.10;99.90
29803;DHT22;16702;50.898;4.662;2022-09-30T05:59:37;10.10;99.90
29803;DHT22;16702;50.898;4.662;2022-09-30T06:02:08;10.10;99.90
29803;DHT22;16702;50.898;4.662;2022-09-30T06:04:38;10.10;99.90
29803;DHT22;16702;50.898;4.662;2022-09-30T06:07:08;10.20;99.90
29803;DHT22;16702;50.898;4.662;2022-09-30T06:09:42;10.10;99.90
29803;DHT22;16702;50.898;4.662;2022-09-30T06:12:12;10.20;99.90
29803;DHT22;16702;50.898;4.662;2022-09-30T06:14:43;10.20;99.90
29803;DHT22;16702;50.898;4.662;2022-09-30T06:17:13;10.10;99.90
29803;DHT22;16702;50.898;4.662;2022-09-30T06:19:44;10.20;99.90
29803;DHT22;16702;50.898;4.662;2022-09-30T06:22:16;10.20;99.90
29803;DHT22;16702;50.898;4.662;2022-09-30T06:24:49;10.10;99.90
29803;DHT22;16702;50.898;4.662;2022-09-30T06:27:21;10.10;99.90
29803;DHT22;16702;50.898;4.662;2022-09-30T06:29:51;10.10;99.90
29803;DHT22;16702;50.898;4.662;2022-09-30T06:32:22;10.00;99.90
29803;DHT22;16702;50.898;4.662;2022-09-30T06:34:52;10.10;99.90
29803;DHT22;16702;50.898;4.662;2022-09-30T06:37:23;10.10;99.90
29803;DHT22;16702;50.898;4.662;2022-09-30T06:39:56;10.00;99.90
29803;DHT22;16702;50.898;4.662;2022-09-30T06:42:26;10.00;99.90
29803;DHT22;16702;50.898;4.662;2022-09-30T06:44:57;10.10;99.90
29803;DHT22;16702;50.898;4.662;2022-09-30T06:47:27;10.10;99.90
29803;DHT22;16702;50.898;4.662;2022-09-30T06:49:59;10.10;99.90
29803;DHT22;16702;50.898;4.662;2022-09-30T06:52:29;10.00;99.90
29803;DHT22;16702;50.898;4.662;2022-09-30T06:55:03;10.10;99.90
29803;DHT22;16702;50.898;4.662;2022-09-30T06:57:33;10.10;99.90
29803;DHT22;16702;50.898;4.662;2022-09-30T07:00:05;10.00;99.90
29803;DHT22;16702;50.898;4.662;2022-09-30T07:02:36;10.10;99.90
29803;DHT22;16702;50.898;4.662;2022-09-30T07:05:07;10.10;99.90
29803;DHT22;16702;50.898;4.662;2022-09-30T07:07:37;10.20;99.90
29803;DHT22;16702;50.898;4.662;2022-09-30T07:10:11;10.10;99.90
29803;DHT22;16702;50.898;4.662;2022-09-30T07:12:41;10.20;99.90
29803;DHT22;16702;50.898;4.662;2022-09-30T07:15:12;10.30;99.90
29803;DHT22;16702;50.898;4.662;2022-09-30T07:17:42;10.30;99.90
29803;DHT22;16702;50.898;4.662;2022-09-30T07:20:13;10.30;99.90
29803;DHT22;16702;50.898;4.662;2022-09-30T07:22:43;10.40;99.90
29803;DHT22;16702;50.898;4.662;2022-09-30T07:25:16;10.30;99.90
29803;DHT22;16702;50.898;4.662;2022-09-30T07:27:47;10.30;99.90
29803;DHT22;16702;50.898;4.662;2022-09-30T07:30:17;10.40;99.90
29803;DHT22;16702;50.898;4.662;2022-09-30T07:32:53;10.40;99.90
29803;DHT22;16702;50.898;4.662;2022-09-30T07:35:23;10.40;99.90
29803;DHT22;16702;50.898;4.662;2022-09-30T07:37:53;10.50;99.90
29803;DHT22;16702;50.898;4.662;2022-09-30T07:40:27;10.50;99.90
29803;DHT22;16702;50.898;4.662;2022-09-30T07:42:57;10.50;99.90
29803;DHT22;16702;50.898;4.662;2022-09-30T07:45:28;10.60;99.90
29803;DHT22;16702;50.898;4.662;2022-09-30T07:47:58;10.60;99.90
29803;DHT22;16702;50.898;4.662;2022-09-30T07:50:28;10.60;99.90
29803;DHT22;16702;50.898;4.662;2022-09-30T07:52:59;10.70;99.90
29803;DHT22;16702;50.898;4.662;2022-09-30T07:55:33;10.70;99.90
29803;DHT22;16702;50.898;4.662;2022-09-30T07:58:03;10.80;99.90
29803;DHT22;16702;50.898;4.662;2022-09-30T08:00:37;10.80;99.90
29803;DHT22;16702;50.898;4.662;2022-09-30T08:03:09;10.80;99.90
29803;DHT22;16702;50.898;4.662;2022-09-30T08:05:40;10.90;99.90
29803;DHT22;16702;50.898;4.662;2022-09-30T08:08:11;11.00;99.90
29803;DHT22;16702;50.898;4.662;2022-09-30T08:10:44;11.00;99.90
29803;DHT22;16702;50.898;4.662;2022-09-30T08:13:14;11.10;99.90
29803;DHT22;16702;50.898;4.662;2022-09-30T08:15:46;11.10;99.90
29803;DHT22;16702;50.898;4.662;2022-09-30T08:18:17;11.20;99.90
29803;DHT22;16702;50.898;4.662;2022-09-30T08:20:48;11.10;99.90
29803;DHT22;16702;50.898;4.662;2022-09-30T08:23:19;11.20;99.90
29803;DHT22;16702;50.898;4.662;2022-09-30T08:25:59;11.30;99.90
29803;DHT22;16702;50.898;4.662;2022-09-30T08:28:30;11.40;99.90
29803;DHT22;16702;50.898;4.662;2022-09-30T08:31:04;11.30;99.90
29803;DHT22;16702;50.898;4.662;2022-09-30T08:33:35;11.40;99.90
29803;DHT22;16702;50.898;4.662;2022-09-30T08:36:08;11.40;99.90
29803;DHT22;16702;50.898;4.662;2022-09-30T08:38:38;11.40;99.90
29803;DHT22;16702;50.898;4.662;2022-09-30T08:41:28;11.50;99.90
29803;DHT22;16702;50.898;4.662;2022-09-30T08:44:09;11.60;99.90
29803;DHT22;16702;50.898;4.662;2022-09-30T08:46:47;11.60;99.90
29803;DHT22;16702;50.898;4.662;2022-09-30T08:49:45;11.70;99.90
29803;DHT22;16702;50.898;4.662;2022-09-30T08:52:21;11.70;99.90
29803;DHT22;16702;50.898;4.662;2022-09-30T08:55:18;11.80;99.90
29803;DHT22;16702;50.898;4.662;2022-09-30T08:57:54;11.90;99.90
29803;DHT22;16702;50.898;4.662;2022-09-30T09:00:25;12.00;99.90
29803;DHT22;16702;50.898;4.662;2022-09-30T09:02:57;12.10;99.90
29803;DHT22;16702;50.898;4.662;2022-09-30T09:05:37;12.10;99.90
29803;DHT22;16702;50.898;4.662;2022-09-30T09:08:19;12.20;99.90
29803;DHT22;16702;50.898;4.662;2022-09-30T09:10:57;12.30;99.90
29803;DHT22;16702;50.898;4.662;2022-09-30T09:13:43;12.30;99.90
29803;DHT22;16702;50.898;4.662;2022-09-30T09:16:21;12.40;99.90
29803;DHT22;16702;50.898;4.662;2022-09-30T09:18:57;12.40;99.90
29803;DHT22;16702;50.898;4.662;2022-09-30T09:21:38;12.50;99.90
29803;DHT22;16702;50.898;4.662;2022-09-30T09:24:15;12.50;99.90
29803;DHT22;16702;50.898;4.662;2022-09-30T09:26:47;12.60;99.90
29803;DHT22;16702;50.898;4.662;2022-09-30T09:29:37;12.70;99.90
29803;DHT22;16702;50.898;4.662;2022-09-30T09:32:12;12.80;99.90
29803;DHT22;16702;50.898;4.662;2022-09-30T09:34:45;12.90;99.90
29803;DHT22;16702;50.898;4.662;2022-09-30T09:37:24;13.00;99.90
29803;DHT22;16702;50.898;4.662;2022-09-30T09:40:23;13.10;99.90
29803;DHT22;16702;50.898;4.662;2022-09-30T09:43:04;13.10;99.90
29803;DHT22;16702;50.898;4.662;2022-09-30T09:45:43;13.20;99.90
29803;DHT22;16702;50.898;4.662;2022-09-30T09:48:19;13.30;99.90
29803;DHT22;16702;50.898;4.662;2022-09-30T09:50:57;13.40;99.90
29803;DHT22;16702;50.898;4.662;2022-09-30T09:53:50;13.50;99.90
29803;DHT22;16702;50.898;4.662;2022-09-30T09:56:28;13.50;99.90
29803;DHT22;16702;50.898;4.662;2022-09-30T09:59:11;13.60;99.90
29803;DHT22;16702;50.898;4.662;2022-09-30T10:01:50;13.70;99.90
29803;DHT22;16702;50.898;4.662;2022-09-30T10:04:23;13.80;99.90
29803;DHT22;16702;50.898;4.662;2022-09-30T10:06:58;13.80;99.90
29803;DHT22;16702;50.898;4.662;2022-09-30T10:09:32;13.90;99.90
29803;DHT22;16702;50.898;4.662;2022-09-30T10:12:25;14.00;99.90
29803;DHT22;16702;50.898;4.662;2022-09-30T10:14:58;14.20;99.90
29803;DHT22;16702;50.898;4.662;2022-09-30T10:17:34;14.20;99.90
29803;DHT22;16702;50.898;4.662;2022-09-30T10:20:07;14.30;99.90
29803;DHT22;16702;50.898;4.662;2022-09-30T10:22:46;14.40;99.90
29803;DHT22;16702;50.898;4.662;2022-09-30T10:25:23;14.50;99.90
29803;DHT22;16702;50.898;4.662;2022-09-30T10:27:56;14.60;99.90
29803;DHT22;16702;50.898;4.662;2022-09-30T10:30:43;14.60;99.90
29803;DHT22;16702;50.898;4.662;2022-09-30T10:33:25;14.70;99.90
29803;DHT22;16702;50.898;4.662;2022-09-30T10:36:10;14.70;99.90
29803;DHT22;16702;50.898;4.662;2022-09-30T10:38:50;14.70;99.90
29803;DHT22;16702;50.898;4.662;2022-09-30T10:41:23;14.60;99.90
29803;DHT22;16702;50.898;4.662;2022-09-30T10:43:56;14.50;99.90
29803;DHT22;16702;50.898;4.662;2022-09-30T10:46:30;14.60;99.90
29803;DHT22;16702;50.898;4.662;2022-09-30T10:49:08;14.70;99.90
29803;DHT22;16702;50.898;4.662;2022-09-30T10:51:39;14.90;99.90
29803;DHT22;16702;50.898;4.662;2022-09-30T10:54:34;15.00;99.90
29803;DHT22;16702;50.898;4.662;2022-09-30T10:57:09;15.00;99.90
29803;DHT22;16702;50.898;4.662;2022-09-30T10:59:44;15.20;99.90
29803;DHT22;16702;50.898;4.662;2022-09-30T11:02:22;15.20;99.90
29803;DHT22;16702;50.898;4.662;2022-09-30T11:05:09;15.30;99.90
29803;DHT22;16702;50.898;4.662;2022-09-30T11:07:45;15.50;99.90
29803;DHT22;16702;50.898;4.662;2022-09-30T11:10:30;15.60;99.90
29803;DHT22;16702;50.898;4.662;2022-09-30T11:13:06;15.70;99.90
29803;DHT22;16702;50.898;4.662;2022-09-30T11:15:44;15.60;99.90
29803;DHT22;16702;50.898;4.662;2022-09-30T11:18:22;15.70;99.90
29803;DHT22;16702;50.898;4.662;2022-09-30T11:21:01;15.80;99.90
29803;DHT22;16702;50.898;4.662;2022-09-30T11:23:36;15.80;99.90
29803;DHT22;16702;50.898;4.662;2022-09-30T11:26:11;15.90;99.90
29803;DHT22;16702;50.898;4.662;2022-09-30T11:28:58;16.00;99.90
29803;DHT22;16702;50.898;4.662;2022-09-30T11:31:35;16.20;99.90
29803;DHT22;16702;50.898;4.662;2022-09-30T11:34:21;16.20;99.90
29803;DHT22;16702;50.898;4.662;2022-09-30T11:37:01;16.00;99.90
29803;DHT22;16702;50.898;4.662;2022-09-30T11:42:32;16.10;99.90
29803;DHT22;16702;50.898;4.662;2022-09-30T11:45:13;15.80;99.90
29803;DHT22;16702;50.898;4.662;2022-09-30T11:48:04;15.70;99.90
29803;DHT22;16702;50.898;4.662;2022-09-30T11:50:46;15.70;99.90
29803;DHT22;16702;50.898;4.662;2022-09-30T11:53:30;15.70;99.90
29803;DHT22;16702;50.898;4.662;2022-09-30T11:56:15;16.10;99.90
29803;DHT22;16702;50.898;4.662;2022-09-30T11:58:52;16.30;99.90
29803;DHT22;16702;50.898;4.662;2022-09-30T12:01:28;16.50;99.90
29803;DHT22;16702;50.898;4.662;2022-09-30T12:04:03;16.60;99.90
29803;DHT22;16702;50.898;4.662;2022-09-30T12:06:38;16.70;99.90
29803;DHT22;16702;50.898;4.662;2022-09-30T12:09:19;16.90;99.90
29803;DHT22;16702;50.898;4.662;2022-09-30T12:11:56;17.00;99.90
29803;DHT22;16702;50.898;4.662;2022-09-30T12:14:32;17.10;99.90
29803;DHT22;16702;50.898;4.662;2022-09-30T12:17:10;17.20;99.90
29803;DHT22;16702;50.898;4.662;2022-09-30T12:19:48;17.20;99.90
29803;DHT22;16702;50.898;4.662;2022-09-30T12:22:25;17.30;99.90
29803;DHT22;16702;50.898;4.662;2022-09-30T12:25:01;17.40;99.90
29803;DHT22;16702;50.898;4.662;2022-09-30T12:27:44;17.50;99.90
29803;DHT22;16702;50.898;4.662;2022-09-30T12:30:19;17.40;99.90
29803;DHT22;16702;50.898;4.662;2022-09-30T12:33:15;17.30;99.90
29803;DHT22;16702;50.898;4.662;2022-09-30T12:36:16;17.20;99.90
29803;DHT22;16702;50.898;4.662;2022-09-30T12:39:29;17.00;99.90
29803;DHT22;16702;50.898;4.662;2022-09-30T12:42:16;17.00;99.90
29803;DHT22;16702;50.898;4.662;2022-09-30T12:47:52;17.40;99.90
29803;DHT22;16702;50.898;4.662;2022-09-30T12:50:27;17.40;99.90
29803;DHT22;16702;50.898;4.662;2022-09-30T12:53:10;17.30;99.90
29803;DHT22;16702;50.898;4.662;2022-09-30T12:55:41;17.10;99.90
29803;DHT22;16702;50.898;4.662;2022-09-30T12:58:21;17.00;99.90
29803;DHT22;16702;50.898;4.662;2022-09-30T13:01:00;16.90;99.90
29803;DHT22;16702;50.898;4.662;2022-09-30T13:07:09;17.20;99.90
29803;DHT22;16702;50.898;4.662;2022-09-30T13:10:00;17.30;99.90
29803;DHT22;16702;50.898;4.662;2022-09-30T13:12:54;17.20;99.90
29803;DHT22;16702;50.898;4.662;2022-09-30T13:15:42;17.10;99.90
29803;DHT22;16702;50.898;4.662;2022-09-30T13:21:21;17.10;99.90
29803;DHT22;16702;50.898;4.662;2022-09-30T13:23:53;17.10;99.90
29803;DHT22;16702;50.898;4.662;2022-09-30T13:26:36;17.10;99.90
29803;DHT22;16702;50.898;4.662;2022-09-30T13:32:36;17.40;99.90
29803;DHT22;16702;50.898;4.662;2022-09-30T13:35:28;17.40;99.90
29803;DHT22;16702;50.898;4.662;2022-09-30T13:38:32;17.50;99.90
29803;DHT22;16702;50.898;4.662;2022-09-30T13:41:06;17.60;99.90
29803;DHT22;16702;50.898;4.662;2022-09-30T13:43:41;17.70;99.90
29803;DHT22;16702;50.898;4.662;2022-09-30T13:46:21;17.70;99.90
29803;DHT22;16702;50.898;4.662;2022-09-30T13:48:59;17.70;99.90
29803;DHT22;16702;50.898;4.662;2022-09-30T13:51:31;17.50;99.90
29803;DHT22;16702;50.898;4.662;2022-09-30T13:54:07;17.60;99.90
29803;DHT22;16702;50.898;4.662;2022-09-30T13:56:42;17.60;99.90
29803;DHT22;16702;50.898;4.662;2022-09-30T13:59:31;17.70;99.90
29803;DHT22;16702;50.898;4.662;2022-09-30T14:02:30;17.70;99.90
29803;DHT22;16702;50.898;4.662;2022-09-30T14:05:22;17.80;99.90
29803;DHT22;16702;50.898;4.662;2022-09-30T14:08:07;17.70;99.90
29803;DHT22;16702;50.898;4.662;2022-09-30T14:10:55;17.80;99.90
29803;DHT22;16702;50.898;4.662;2022-09-30T14:13:38;17.80;99.90
29803;DHT22;16702;50.898;4.662;2022-09-30T14:16:46;17.80;99.90
29803;DHT22;16702;50.898;4.662;2022-09-30T14:19:39;17.80;99.90
29803;DHT22;16702;50.898;4.662;2022-09-30T14:22:14;17.80;99.90
29803;DHT22;16702;50.898;4.662;2022-09-30T14:24:45;17.80;99.90
29803;DHT22;16702;50.898;4.662;2022-09-30T14:27:32;17.80;99.90
29803;DHT22;16702;50.898;4.662;2022-09-30T14:30:11;17.90;99.90
29803;DHT22;16702;50.898;4.662;2022-09-30T14:32:44;17.80;99.90
29803;DHT22;16702;50.898;4.662;2022-09-30T14:35:17;17.80;99.90
29803;DHT22;16702;50.898;4.662;2022-09-30T14:37:54;17.80;99.90
29803;DHT22;16702;50.898;4.662;2022-09-30T14:40:28;17.60;99.90
29803;DHT22;16702;50.898;4.662;2022-09-30T14:43:01;17.60;99.90
29803;DHT22;16702;50.898;4.662;2022-09-30T14:45:34;17.60;99.90
29803;DHT22;16702;50.898;4.662;2022-09-30T14:48:09;17.60;99.90
29803;DHT22;16702;50.898;4.662;2022-09-30T14:50:43;17.70;99.90
29803;DHT22;16702;50.898;4.662;2022-09-30T14:53:29;17.70;99.90
29803;DHT22;16702;50.898;4.662;2022-09-30T14:56:00;17.60;99.90
29803;DHT22;16702;50.898;4.662;2022-09-30T14:58:38;17.50;99.90
29803;DHT22;16702;50.898;4.662;2022-09-30T15:01:12;17.60;99.90
29803;DHT22;16702;50.898;4.662;2022-09-30T15:03:46;17.60;99.90
29803;DHT22;16702;50.898;4.662;2022-09-30T15:06:19;17.70;99.90
29803;DHT22;16702;50.898;4.662;2022-09-30T15:09:00;17.70;99.90
29803;DHT22;16702;50.898;4.662;2022-09-30T15:11:32;17.70;99.90
29803;DHT22;16702;50.898;4.662;2022-09-30T15:14:10;17.60;99.90
29803;DHT22;16702;50.898;4.662;2022-09-30T15:16:47;17.60;99.90
29803;DHT22;16702;50.898;4.662;2022-09-30T15:19:20;17.60;99.90
29803;DHT22;16702;50.898;4.662;2022-09-30T15:21:52;17.60;99.90
29803;DHT22;16702;50.898;4.662;2022-09-30T15:24:28;17.50;99.90
29803;DHT22;16702;50.898;4.662;2022-09-30T15:27:00;17.50;99.90
29803;DHT22;16702;50.898;4.662;2022-09-30T15:29:30;17.50;99.90
29803;DHT22;16702;50.898;4.662;2022-09-30T15:32:02;17.40;99.90
29803;DHT22;16702;50.898;4.662;2022-09-30T15:34:34;17.30;99.90
29803;DHT22;16702;50.898;4.662;2022-09-30T15:37:05;17.30;99.90
29803;DHT22;16702;50.898;4.662;2022-09-30T15:39:45;17.30;99.90
29803;DHT22;16702;50.898;4.662;2022-09-30T15:42:32;17.40;99.90
29803;DHT22;16702;50.898;4.662;2022-09-30T15:45:26;17.40;99.90
29803;DHT22;16702;50.898;4.662;2022-09-30T15:48:04;17.40;99.90
29803;DHT22;16702;50.898;4.662;2022-09-30T15:50:39;17.40;99.90
29803;DHT22;16702;50.898;4.662;2022-09-30T15:53:15;17.40;99.90
29803;DHT22;16702;50.898;4.662;2022-09-30T15:55:54;17.40;99.90
29803;DHT22;16702;50.898;4.662;2022-09-30T15:58:35;17.40;99.90
29803;DHT22;16702;50.898;4.662;2022-09-30T16:01:16;17.30;99.90
29803;DHT22;16702;50.898;4.662;2022-09-30T16:03:52;17.30;99.90
29803;DHT22;16702;50.898;4.662;2022-09-30T16:06:30;17.20;99.90
29803;DHT22;16702;50.898;4.662;2022-09-30T16:09:04;17.20;99.90
29803;DHT22;16702;50.898;4.662;2022-09-30T16:11:40;17.10;99.90
29803;DHT22;16702;50.898;4.662;2022-09-30T16:14:17;17.10;99.90
29803;DHT22;16702;50.898;4.662;2022-09-30T16:16:52;17.10;99.90
29803;DHT22;16702;50.898;4.662;2022-09-30T16:19:24;17.00;99.90
29803;DHT22;16702;50.898;4.662;2022-09-30T16:21:57;17.00;99.90
29803;DHT22;16702;50.898;4.662;2022-09-30T16:24:44;17.00;99.90
29803;DHT22;16702;50.898;4.662;2022-09-30T16:27:26;16.90;99.90
29803;DHT22;16702;50.898;4.662;2022-09-30T16:29:58;16.90;99.90
29803;DHT22;16702;50.898;4.662;2022-09-30T16:32:35;16.80;99.90
29803;DHT22;16702;50.898;4.662;2022-09-30T16:35:08;16.80;99.90
29803;DHT22;16702;50.898;4.662;2022-09-30T16:37:44;16.80;99.90
29803;DHT22;16702;50.898;4.662;2022-09-30T16:40:18;16.70;99.90
29803;DHT22;16702;50.898;4.662;2022-09-30T16:42:52;16.80;99.90
29803;DHT22;16702;50.898;4.662;2022-09-30T16:45:25;16.70;99.90